sensor_id;sensor_type;location;lat;lon;timestamp;pressure;altitude;pressure_sealevel;temperature;humidity
41712;BME280;27399;51.516;13.670;2022-08-24T00:02:14;100841.47;;;21.63;88.32
41712;BME280;27399;51.516;13.670;2022-08-24T00:04:41;100827.03;;;21.62;88.54
41712;BME280;27399;51.516;13.670;2022-08-24T00:07:07;100840.25;;;21.30;89.86
41712;BME280;27399;51.516;13.670;2022-08-24T00:09:33;100843.06;;;21.48;89.68
41712;BME280;27399;51.516;13.670;2022-08-24T00:11:58;100845.84;;;21.46;90.19
41712;BME280;27399;51.516;13.670;2022-08-24T00:14:24;100844.78;;;21.30;90.42
41712;BME280;27399;51.516;13.670;2022-08-24T00:16:49;100845.53;;;21.52;90.47
41712;BME280;27399;51.516;13.670;2022-08-24T00:19:15;100843.19;;;21.45;90.48
41712;BME280;27399;51.516;13.670;2022-08-24T00:21:40;100854.25;;;21.40;91.26
41712;BME280;27399;51.516;13.670;2022-08-24T00:24:06;100847.03;;;21.60;89.99
41712;BME280;27399;51.516;13.670;2022-08-24T00:26:31;100848.56;;;21.46;90.50
41712;BME280;27399;51.516;13.670;2022-08-24T00:28:57;100846.22;;;21.58;89.56
41712;BME280;27399;51.516;13.670;2022-08-24T00:31:23;100858.16;;;21.54;89.69
41712;BME280;27399;51.516;13.670;2022-08-24T00:33:48;100851.47;;;21.62;89.02
41712;BME280;27399;51.516;13.670;2022-08-24T00:36:14;100859.50;;;21.64;88.93
41712;BME280;27399;51.516;13.670;2022-08-24T00:38:40;100846.75;;;21.66;88.56
41712;BME280;27399;51.516;13.670;2022-08-24T00:41:05;100854.94;;;21.64;88.54
41712;BME280;27399;51.516;13.670;2022-08-24T00:43:30;100856.00;;;21.62;88.31
41712;BME280;27399;51.516;13.670;2022-08-24T00:48:38;100846.34;;;21.55;87.78
41712;BME280;27399;51.516;13.670;2022-08-24T00:51:11;100843.28;;;21.43;88.52
41712;BME280;27399;51.516;13.670;2022-08-24T00:53:45;100842.91;;;21.51;88.40
41712;BME280;27399;51.516;13.670;2022-08-24T00:56:15;100852.25;;;21.05;88.92
41712;BME280;27399;51.516;13.670;2022-08-24T00:58:45;100841.44;;;21.25;89.30
41712;BME280;27399;51.516;13.670;2022-08-24T01:01:12;100843.47;;;21.19;88.79
41712;BME280;27399;51.516;13.670;2022-08-24T01:03:38;100849.31;;;21.10;89.18
41712;BME280;27399;51.516;13.670;2022-08-24T01:06:05;100845.75;;;20.89;90.34
41712;BME280;27399;51.516;13.670;2022-08-24T01:08:31;100849.63;;;21.23;89.27
41712;BME280;27399;51.516;13.670;2022-08-24T01:10:58;100846.56;;;21.31;88.72
41712;BME280;27399;51.516;13.670;2022-08-24T01:13:25;100842.34;;;21.04;89.27
41712;BME280;27399;51.516;13.670;2022-08-24T01:15:51;100849.44;;;21.07;88.95
41712;BME280;27399;51.516;13.670;2022-08-24T01:18:21;100843.25;;;21.05;89.06
41712;BME280;27399;51.516;13.670;2022-08-24T01:23:47;100841.75;;;20.77;90.34
41712;BME280;27399;51.516;13.670;2022-08-24T01:26:18;100832.94;;;20.93;89.27
41712;BME280;27399;51.516;13.670;2022-08-24T01:28:45;100842.66;;;20.78;90.21
41712;BME280;27399;51.516;13.670;2022-08-24T01:31:11;100835.66;;;20.93;89.48
41712;BME280;27399;51.516;13.670;2022-08-24T01:33:37;100828.59;;;20.88;89.43
41712;BME280;27399;51.516;13.670;2022-08-24T01:36:14;100834.16;;;20.85;88.88
41712;BME280;27399;51.516;13.670;2022-08-24T01:38:43;100834.72;;;20.94;88.63
41712;BME280;27399;51.516;13.670;2022-08-24T01:41:08;100830.22;;;20.93;88.68
41712;BME280;27399;51.516;13.670;2022-08-24T01:43:34;100829.47;;;20.68;89.54
41712;BME280;27399;51.516;13.670;2022-08-24T01:45:59;100832.03;;;20.71;89.36
41712;BME280;27399;51.516;13.670;2022-08-24T01:48:24;100833.41;;;20.82;88.70
41712;BME280;27399;51.516;13.670;2022-08-24T01:50:50;100836.06;;;20.83;88.30
41712;BME280;27399;51.516;13.670;2022-08-24T01:53:16;100829.97;;;20.78;88.27
41712;BME280;27399;51.516;13.670;2022-08-24T01:55:44;100827.00;;;20.84;88.31
41712;BME280;27399;51.516;13.670;2022-08-24T01:58:09;100822.56;;;20.82;88.51
41712;BME280;27399;51.516;13.670;2022-08-24T02:00:35;100830.03;;;20.77;88.36
41712;BME280;27399;51.516;13.670;2022-08-24T02:03:01;100828.16;;;20.79;87.91
41712;BME280;27399;51.516;13.670;2022-08-24T02:05:27;100836.22;;;20.80;87.91
41712;BME280;27399;51.516;13.670;2022-08-24T02:07:53;100842.56;;;20.79;87.81
41712;BME280;27399;51.516;13.670;2022-08-24T02:10:18;100847.44;;;20.71;88.13
41712;BME280;27399;51.516;13.670;2022-08-24T02:12:45;100839.28;;;20.71;88.20
41712;BME280;27399;51.516;13.670;2022-08-24T02:15:22;100835.75;;;20.48;88.75
41712;BME280;27399;51.516;13.670;2022-08-24T02:17:48;100839.75;;;20.60;88.27
41712;BME280;27399;51.516;13.670;2022-08-24T02:20:13;100835.16;;;20.62;87.89
41712;BME280;27399;51.516;13.670;2022-08-24T02:22:40;100834.81;;;20.49;87.85
41712;BME280;27399;51.516;13.670;2022-08-24T02:25:05;100837.44;;;20.30;88.37
41712;BME280;27399;51.516;13.670;2022-08-24T02:27:30;100841.31;;;20.45;88.04
41712;BME280;27399;51.516;13.670;2022-08-24T02:29:56;100835.22;;;20.40;88.14
41712;BME280;27399;51.516;13.670;2022-08-24T02:32:21;100839.19;;;20.31;88.16
41712;BME280;27399;51.516;13.670;2022-08-24T02:34:47;100838.16;;;20.34;88.44
41712;BME280;27399;51.516;13.670;2022-08-24T02:37:12;100847.66;;;20.44;88.10
41712;BME280;27399;51.516;13.670;2022-08-24T02:39:38;100838.56;;;20.47;87.81
41712;BME280;27399;51.516;13.670;2022-08-24T02:42:03;100841.19;;;20.48;87.46
41712;BME280;27399;51.516;13.670;2022-08-24T02:44:29;100841.31;;;20.45;87.92
41712;BME280;27399;51.516;13.670;2022-08-24T02:46:57;100838.44;;;20.27;88.44
41712;BME280;27399;51.516;13.670;2022-08-24T02:49:24;100849.16;;;20.31;88.08
41712;BME280;27399;51.516;13.670;2022-08-24T02:51:50;100839.94;;;20.35;87.56
41712;BME280;27399;51.516;13.670;2022-08-24T02:54:16;100842.03;;;20.28;88.08
41712;BME280;27399;51.516;13.670;2022-08-24T02:56:42;100837.50;;;20.28;88.08
41712;BME280;27399;51.516;13.670;2022-08-24T02:59:14;100836.56;;;20.30;87.78
41712;BME280;27399;51.516;13.670;2022-08-24T03:01:40;100839.38;;;20.26;87.71
41712;BME280;27399;51.516;13.670;2022-08-24T03:04:09;100845.63;;;20.28;87.94
41712;BME280;27399;51.516;13.670;2022-08-24T03:06:55;100844.75;;;20.06;88.17
41712;BME280;27399;51.516;13.670;2022-08-24T03:09:20;100855.31;;;20.12;88.71
41712;BME280;27399;51.516;13.670;2022-08-24T03:11:46;100850.47;;;19.76;89.45
41712;BME280;27399;51.516;13.670;2022-08-24T03:14:12;100854.84;;;20.02;88.85
41712;BME280;27399;51.516;13.670;2022-08-24T03:16:38;100858.31;;;20.06;88.88
41712;BME280;27399;51.516;13.670;2022-08-24T03:19:04;100850.56;;;19.96;88.88
41712;BME280;27399;51.516;13.670;2022-08-24T03:21:30;100858.44;;;19.79;90.19
41712;BME280;27399;51.516;13.670;2022-08-24T03:23:57;100859.25;;;20.05;89.20
41712;BME280;27399;51.516;13.670;2022-08-24T03:26:23;100858.13;;;19.88;89.29
41712;BME280;27399;51.516;13.670;2022-08-24T03:28:51;100860.63;;;19.93;89.19
41712;BME280;27399;51.516;13.670;2022-08-24T03:31:20;100865.88;;;19.97;88.97
41712;BME280;27399;51.516;13.670;2022-08-24T03:33:48;100864.78;;;20.02;88.94
41712;BME280;27399;51.516;13.670;2022-08-24T03:36:17;100874.53;;;20.06;88.57
41712;BME280;27399;51.516;13.670;2022-08-24T03:38:42;100869.00;;;20.09;88.43
41712;BME280;27399;51.516;13.670;2022-08-24T03:41:09;100874.94;;;19.96;88.84
41712;BME280;27399;51.516;13.670;2022-08-24T03:43:36;100873.16;;;19.95;88.82
41712;BME280;27399;51.516;13.670;2022-08-24T03:46:11;100882.56;;;19.85;88.92
41712;BME280;27399;51.516;13.670;2022-08-24T03:48:41;100881.41;;;19.92;88.54
41712;BME280;27399;51.516;13.670;2022-08-24T03:51:27;100881.00;;;20.02;88.20
41712;BME280;27399;51.516;13.670;2022-08-24T03:53:54;100880.53;;;19.92;88.06
41712;BME280;27399;51.516;13.670;2022-08-24T03:56:19;100886.47;;;19.78;88.49
41712;BME280;27399;51.516;13.670;2022-08-24T03:58:47;100894.22;;;19.63;88.55
41712;BME280;27399;51.516;13.670;2022-08-24T04:01:13;100896.09;;;19.85;88.17
41712;BME280;27399;51.516;13.670;2022-08-24T04:03:42;100902.41;;;19.86;88.04
41712;BME280;27399;51.516;13.670;2022-08-24T04:06:08;100896.31;;;19.79;88.60
41712;BME280;27399;51.516;13.670;2022-08-24T04:08:35;100900.75;;;19.81;88.62
41712;BME280;27399;51.516;13.670;2022-08-24T04:11:04;100895.56;;;19.75;88.93
41712;BME280;27399;51.516;13.670;2022-08-24T04:13:34;100901.91;;;19.74;89.04
41712;BME280;27399;51.516;13.670;2022-08-24T04:16:07;100899.09;;;19.77;88.67
41712;BME280;27399;51.516;13.670;2022-08-24T04:18:33;100905.16;;;19.84;88.13
41712;BME280;27399;51.516;13.670;2022-08-24T04:21:01;100900.78;;;19.80;87.99
41712;BME280;27399;51.516;13.670;2022-08-24T04:23:27;100898.59;;;19.67;89.18
41712;BME280;27399;51.516;13.670;2022-08-24T04:25:52;100904.13;;;19.64;88.97
41712;BME280;27399;51.516;13.670;2022-08-24T04:28:18;100906.56;;;19.71;88.90
41712;BME280;27399;51.516;13.670;2022-08-24T04:30:46;100910.00;;;19.76;88.65
41712;BME280;27399;51.516;13.670;2022-08-24T04:33:14;100910.63;;;19.82;88.92
41712;BME280;27399;51.516;13.670;2022-08-24T04:35:41;100908.97;;;19.78;89.47
41712;BME280;27399;51.516;13.670;2022-08-24T04:38:08;100919.44;;;19.89;88.95
41712;BME280;27399;51.516;13.670;2022-08-24T04:40:34;100922.63;;;19.75;89.83
41712;BME280;27399;51.516;13.670;2022-08-24T04:43:03;100921.31;;;19.87;89.51
41712;BME280;27399;51.516;13.670;2022-08-24T04:45:28;100921.16;;;19.90;89.64
41712;BME280;27399;51.516;13.670;2022-08-24T04:47:54;100920.13;;;19.94;89.34
41712;BME280;27399;51.516;13.670;2022-08-24T04:50:20;100922.06;;;19.91;89.59
41712;BME280;27399;51.516;13.670;2022-08-24T04:52:45;100924.69;;;19.92;89.75
41712;BME280;27399;51.516;13.670;2022-08-24T04:55:11;100927.22;;;19.97;89.55
41712;BME280;27399;51.516;13.670;2022-08-24T04:57:37;100927.50;;;20.13;89.16
41712;BME280;27399;51.516;13.670;2022-08-24T05:00:03;100926.81;;;20.08;90.04
41712;BME280;27399;51.516;13.670;2022-08-24T05:02:29;100922.44;;;20.04;90.04
41712;BME280;27399;51.516;13.670;2022-08-24T05:04:55;100916.16;;;20.03;90.49
41712;BME280;27399;51.516;13.670;2022-08-24T05:07:21;100916.16;;;20.03;90.67
41712;BME280;27399;51.516;13.670;2022-08-24T05:09:47;100916.97;;;20.05;91.28
41712;BME280;27399;51.516;13.670;2022-08-24T05:12:15;100914.22;;;20.07;91.21
41712;BME280;27399;51.516;13.670;2022-08-24T05:14:41;100915.59;;;20.17;90.44
41712;BME280;27399;51.516;13.670;2022-08-24T05:17:09;100923.91;;;20.12;90.72
41712;BME280;27399;51.516;13.670;2022-08-24T05:19:37;100923.47;;;20.23;90.50
41712;BME280;27399;51.516;13.670;2022-08-24T05:22:03;100924.97;;;20.08;91.03
41712;BME280;27399;51.516;13.670;2022-08-24T05:24:39;100924.59;;;19.95;92.05
41712;BME280;27399;51.516;13.670;2022-08-24T05:27:05;100928.66;;;19.84;92.73
41712;BME280;27399;51.516;13.670;2022-08-24T05:29:31;100928.13;;;19.97;91.58
41712;BME280;27399;51.516;13.670;2022-08-24T05:31:58;100930.00;;;19.95;92.05
41712;BME280;27399;51.516;13.670;2022-08-24T05:37:00;100927.50;;;20.13;92.32
41712;BME280;27399;51.516;13.670;2022-08-24T05:39:26;100937.16;;;20.20;92.52
41712;BME280;27399;51.516;13.670;2022-08-24T05:41:55;100934.88;;;20.32;92.33
41712;BME280;27399;51.516;13.670;2022-08-24T05:44:21;100928.84;;;20.25;92.59
41712;BME280;27399;51.516;13.670;2022-08-24T05:46:48;100935.56;;;20.37;92.08
41712;BME280;27399;51.516;13.670;2022-08-24T05:49:17;100930.50;;;20.50;92.12
41712;BME280;27399;51.516;13.670;2022-08-24T05:51:48;100924.84;;;20.56;91.85
41712;BME280;27399;51.516;13.670;2022-08-24T05:54:14;100930.88;;;20.63;91.81
41712;BME280;27399;51.516;13.670;2022-08-24T05:56:40;100926.34;;;20.63;91.70
41712;BME280;27399;51.516;13.670;2022-08-24T05:59:05;100925.31;;;20.66;91.78
41712;BME280;27399;51.516;13.670;2022-08-24T06:01:34;100930.31;;;20.54;92.12
41712;BME280;27399;51.516;13.670;2022-08-24T06:04:02;100930.38;;;20.75;92.02
41712;BME280;27399;51.516;13.670;2022-08-24T06:06:29;100939.13;;;20.82;91.64
41712;BME280;27399;51.516;13.670;2022-08-24T06:08:58;100945.81;;;20.73;91.93
41712;BME280;27399;51.516;13.670;2022-08-24T06:11:28;100940.22;;;20.78;91.84
41712;BME280;27399;51.516;13.670;2022-08-24T06:13:56;100942.13;;;20.76;91.45
41712;BME280;27399;51.516;13.670;2022-08-24T06:16:22;100948.16;;;20.82;91.88
41712;BME280;27399;51.516;13.670;2022-08-24T06:18:48;100950.03;;;20.80;92.33
41712;BME280;27399;51.516;13.670;2022-08-24T06:21:15;100943.34;;;21.10;91.23
41712;BME280;27399;51.516;13.670;2022-08-24T06:23:41;100943.69;;;21.02;91.77
41712;BME280;27399;51.516;13.670;2022-08-24T06:26:08;100946.19;;;20.86;92.52
41712;BME280;27399;51.516;13.670;2022-08-24T06:28:54;100947.63;;;20.95;92.58
41712;BME280;27399;51.516;13.670;2022-08-24T06:31:19;100944.72;;;20.99;92.41
41712;BME280;27399;51.516;13.670;2022-08-24T06:33:46;100944.22;;;21.31;91.05
41712;BME280;27399;51.516;13.670;2022-08-24T06:36:12;100944.63;;;21.21;91.67
41712;BME280;27399;51.516;13.670;2022-08-24T06:38:38;100947.94;;;21.28;92.04
41712;BME280;27399;51.516;13.670;2022-08-24T06:41:04;100940.94;;;21.43;91.04
41712;BME280;27399;51.516;13.670;2022-08-24T06:43:29;100955.84;;;21.54;90.78
41712;BME280;27399;51.516;13.670;2022-08-24T06:45:55;100950.94;;;21.63;91.08
41712;BME280;27399;51.516;13.670;2022-08-24T06:48:21;100958.84;;;21.68;90.59
41712;BME280;27399;51.516;13.670;2022-08-24T06:50:47;100957.81;;;21.71;90.43
41712;BME280;27399;51.516;13.670;2022-08-24T06:53:13;100962.47;;;21.88;89.15
41712;BME280;27399;51.516;13.670;2022-08-24T06:55:43;100960.56;;;21.90;89.26
41712;BME280;27399;51.516;13.670;2022-08-24T06:58:09;100965.22;;;21.46;92.12
41712;BME280;27399;51.516;13.670;2022-08-24T07:00:35;100963.69;;;21.41;92.06
41712;BME280;27399;51.516;13.670;2022-08-24T07:03:00;100959.22;;;21.79;91.25
41712;BME280;27399;51.516;13.670;2022-08-24T07:05:26;100959.16;;;22.00;90.82
41712;BME280;27399;51.516;13.670;2022-08-24T07:07:52;100962.38;;;22.08;89.74
41712;BME280;27399;51.516;13.670;2022-08-24T07:10:17;100962.53;;;22.05;90.90
41712;BME280;27399;51.516;13.670;2022-08-24T07:12:43;100964.06;;;21.92;90.70
41712;BME280;27399;51.516;13.670;2022-08-24T07:15:09;100967.72;;;21.91;90.95
41712;BME280;27399;51.516;13.670;2022-08-24T07:17:35;100962.47;;;21.88;90.97
41712;BME280;27399;51.516;13.670;2022-08-24T07:20:01;100962.94;;;22.34;89.46
41712;BME280;27399;51.516;13.670;2022-08-24T07:22:26;100963.97;;;22.32;89.80
41712;BME280;27399;51.516;13.670;2022-08-24T07:24:52;100956.31;;;22.59;87.90
41712;BME280;27399;51.516;13.670;2022-08-24T07:27:17;100966.47;;;22.73;88.04
41712;BME280;27399;51.516;13.670;2022-08-24T07:29:43;100967.53;;;22.88;87.33
41712;BME280;27399;51.516;13.670;2022-08-24T07:32:08;100963.69;;;22.74;88.79
41712;BME280;27399;51.516;13.670;2022-08-24T07:34:34;100966.19;;;22.79;88.41
41712;BME280;27399;51.516;13.670;2022-08-24T07:37:01;100964.56;;;22.93;88.38
41712;BME280;27399;51.516;13.670;2022-08-24T07:39:27;100966.88;;;23.18;86.68
41712;BME280;27399;51.516;13.670;2022-08-24T07:41:54;100967.28;;;22.93;86.82
41712;BME280;27399;51.516;13.670;2022-08-24T07:44:21;100973.22;;;23.18;87.68
41712;BME280;27399;51.516;13.670;2022-08-24T07:46:49;100975.22;;;23.32;86.74
41712;BME280;27399;51.516;13.670;2022-08-24T07:49:15;100971.50;;;23.51;85.19
41712;BME280;27399;51.516;13.670;2022-08-24T07:51:40;100972.50;;;23.32;85.88
41712;BME280;27399;51.516;13.670;2022-08-24T07:54:06;100972.31;;;23.53;85.43
41712;BME280;27399;51.516;13.670;2022-08-24T07:56:32;100970.84;;;23.63;84.02
41712;BME280;27399;51.516;13.670;2022-08-24T07:58:57;100971.59;;;23.83;84.18
41712;BME280;27399;51.516;13.670;2022-08-24T08:01:26;100976.38;;;23.95;83.60
41712;BME280;27399;51.516;13.670;2022-08-24T08:03:51;100972.59;;;23.98;84.42
41712;BME280;27399;51.516;13.670;2022-08-24T08:06:17;100981.75;;;23.97;82.68
41712;BME280;27399;51.516;13.670;2022-08-24T08:08:43;100977.47;;;24.09;83.08
41712;BME280;27399;51.516;13.670;2022-08-24T08:11:09;100978.16;;;24.12;81.82
41712;BME280;27399;51.516;13.670;2022-08-24T08:13:38;100984.47;;;24.13;83.55
41712;BME280;27399;51.516;13.670;2022-08-24T08:16:04;100979.13;;;23.95;81.81
41712;BME280;27399;51.516;13.670;2022-08-24T08:18:29;100977.91;;;24.33;82.27
41712;BME280;27399;51.516;13.670;2022-08-24T08:20:55;100982.91;;;24.41;83.13
41712;BME280;27399;51.516;13.670;2022-08-24T08:23:21;100987.66;;;24.53;81.22
41712;BME280;27399;51.516;13.670;2022-08-24T08:26:05;100991.25;;;24.54;80.11
41712;BME280;27399;51.516;13.670;2022-08-24T08:28:32;100994.34;;;24.48;80.92
41712;BME280;27399;51.516;13.670;2022-08-24T08:31:01;100991.41;;;24.67;79.93
41712;BME280;27399;51.516;13.670;2022-08-24T08:33:28;100988.66;;;24.67;79.84
41712;BME280;27399;51.516;13.670;2022-08-24T08:36:10;100995.88;;;24.68;80.19
41712;BME280;27399;51.516;13.670;2022-08-24T08:38:37;100991.88;;;24.75;79.34
41712;BME280;27399;51.516;13.670;2022-08-24T08:43:45;101001.09;;;24.56;78.72
41712;BME280;27399;51.516;13.670;2022-08-24T08:57:04;101000.31;;;24.86;78.51
41712;BME280;27399;51.516;13.670;2022-08-24T09:18:22;100986.75;;;25.15;77.40
41712;BME280;27399;51.516;13.670;2022-08-24T09:23:45;100983.63;;;25.21;76.80
41712;BME280;27399;51.516;13.670;2022-08-24T09:33:44;100976.53;;;26.35;73.51
41712;BME280;27399;51.516;13.670;2022-08-24T09:36:24;100980.47;;;26.58;73.18
41712;BME280;27399;51.516;13.670;2022-08-24T09:38:58;100973.38;;;26.83;71.14
41712;BME280;27399;51.516;13.670;2022-08-24T09:54:34;100972.22;;;26.72;73.42
41712;BME280;27399;51.516;13.670;2022-08-24T09:57:12;100970.75;;;26.67;73.33
41712;BME280;27399;51.516;13.670;2022-08-24T09:59:54;100970.38;;;26.45;73.35
41712;BME280;27399;51.516;13.670;2022-08-24T10:07:32;100965.72;;;26.33;70.93
41712;BME280;27399;51.516;13.670;2022-08-24T10:10:34;100960.09;;;26.49;70.50
41712;BME280;27399;51.516;13.670;2022-08-24T10:12:56;100949.63;;;26.56;72.34
41712;BME280;27399;51.516;13.670;2022-08-24T10:15:50;100950.31;;;26.72;70.67
41712;BME280;27399;51.516;13.670;2022-08-24T10:18:18;100952.59;;;26.66;71.07
41712;BME280;27399;51.516;13.670;2022-08-24T10:21:11;100948.06;;;26.52;71.91
41712;BME280;27399;51.516;13.670;2022-08-24T10:31:22;100943.69;;;26.49;71.28
41712;BME280;27399;51.516;13.670;2022-08-24T10:45:16;100937.22;;;26.78;70.63
41712;BME280;27399;51.516;13.670;2022-08-24T10:55:22;100943.28;;;26.68;69.45
41712;BME280;27399;51.516;13.670;2022-08-24T11:00:33;100947.56;;;26.87;71.42
41712;BME280;27399;51.516;13.670;2022-08-24T11:05:34;100950.69;;;26.81;71.66
41712;BME280;27399;51.516;13.670;2022-08-24T11:08:03;100949.09;;;26.64;72.21
41712;BME280;27399;51.516;13.670;2022-08-24T11:10:30;100945.56;;;26.89;71.16
41712;BME280;27399;51.516;13.670;2022-08-24T11:13:12;100944.53;;;26.77;71.39
41712;BME280;27399;51.516;13.670;2022-08-24T11:15:38;100938.91;;;26.93;70.36
41712;BME280;27399;51.516;13.670;2022-08-24T11:18:10;100937.63;;;26.71;69.37
41712;BME280;27399;51.516;13.670;2022-08-24T11:20:40;100939.75;;;26.81;71.83
41712;BME280;27399;51.516;13.670;2022-08-24T11:25:32;100936.97;;;27.08;71.55
41712;BME280;27399;51.516;13.670;2022-08-24T11:28:04;100935.22;;;27.07;67.76
41712;BME280;27399;51.516;13.670;2022-08-24T11:30:30;100931.59;;;27.32;68.59
41712;BME280;27399;51.516;13.670;2022-08-24T11:32:57;100935.44;;;27.43;69.68
41712;BME280;27399;51.516;13.670;2022-08-24T11:37:49;100934.28;;;27.47;68.29
41712;BME280;27399;51.516;13.670;2022-08-24T11:40:16;100947.16;;;27.83;67.87
41712;BME280;27399;51.516;13.670;2022-08-24T11:45:32;100942.38;;;27.61;68.48
41712;BME280;27399;51.516;13.670;2022-08-24T11:55:58;100933.38;;;27.72;68.05
41712;BME280;27399;51.516;13.670;2022-08-24T12:03:45;100943.78;;;27.54;68.52
41712;BME280;27399;51.516;13.670;2022-08-24T12:06:32;100941.81;;;27.56;68.69
41712;BME280;27399;51.516;13.670;2022-08-24T12:09:02;100941.16;;;27.52;69.01
41712;BME280;27399;51.516;13.670;2022-08-24T12:11:31;100953.44;;;27.47;70.45
41712;BME280;27399;51.516;13.670;2022-08-24T12:21:22;100943.00;;;27.26;70.34
41712;BME280;27399;51.516;13.670;2022-08-24T12:23:49;100945.94;;;27.23;71.76
41712;BME280;27399;51.516;13.670;2022-08-24T12:26:24;100942.56;;;27.32;69.43
41712;BME280;27399;51.516;13.670;2022-08-24T12:28:54;100945.28;;;27.32;69.50
41712;BME280;27399;51.516;13.670;2022-08-24T12:33:51;100939.50;;;27.37;68.23
41712;BME280;27399;51.516;13.670;2022-08-24T12:36:26;100939.53;;;27.50;67.71
41712;BME280;27399;51.516;13.670;2022-08-24T12:39:08;100935.75;;;27.77;67.35
41712;BME280;27399;51.516;13.670;2022-08-24T12:41:35;100937.75;;;27.62;70.57
41712;BME280;27399;51.516;13.670;2022-08-24T12:44:11;100948.38;;;27.41;69.53
41712;BME280;27399;51.516;13.670;2022-08-24T12:46:39;100931.16;;;27.13;69.85
41712;BME280;27399;51.516;13.670;2022-08-24T12:49:18;100928.00;;;27.32;69.92
41712;BME280;27399;51.516;13.670;2022-08-24T12:57:10;100937.31;;;27.29;71.07
41712;BME280;27399;51.516;13.670;2022-08-24T12:59:39;100941.13;;;27.14;72.67
41712;BME280;27399;51.516;13.670;2022-08-24T13:04:42;100941.66;;;26.93;74.02
41712;BME280;27399;51.516;13.670;2022-08-24T13:07:11;100941.91;;;26.75;72.36
41712;BME280;27399;51.516;13.670;2022-08-24T13:17:46;100938.78;;;26.82;73.29
41712;BME280;27399;51.516;13.670;2022-08-24T13:20:19;100940.03;;;26.76;73.00
41712;BME280;27399;51.516;13.670;2022-08-24T13:23:30;100933.91;;;26.72;74.43
41712;BME280;27399;51.516;13.670;2022-08-24T13:28:07;100939.06;;;26.77;74.88
41712;BME280;27399;51.516;13.670;2022-08-24T13:30:36;100934.22;;;26.68;75.37
41712;BME280;27399;51.516;13.670;2022-08-24T13:33:07;100942.97;;;26.73;75.23
41712;BME280;27399;51.516;13.670;2022-08-24T13:35:38;100943.75;;;26.75;75.30
41712;BME280;27399;51.516;13.670;2022-08-24T13:39:13;100939.06;;;26.77;74.44
41712;BME280;27399;51.516;13.670;2022-08-24T13:43:41;100946.16;;;26.67;73.38
41712;BME280;27399;51.516;13.670;2022-08-24T13:48:55;100937.50;;;26.73;73.74
41712;BME280;27399;51.516;13.670;2022-08-24T14:04:03;100929.94;;;26.64;72.71
41712;BME280;27399;51.516;13.670;2022-08-24T14:06:34;100931.16;;;26.87;72.77
41712;BME280;27399;51.516;13.670;2022-08-24T14:09:14;100934.84;;;26.86;72.60
41712;BME280;27399;51.516;13.670;2022-08-24T14:18:02;100919.75;;;26.93;74.36
41712;BME280;27399;51.516;13.670;2022-08-24T14:20:17;100922.78;;;26.75;74.25
41712;BME280;27399;51.516;13.670;2022-08-24T14:25:30;100926.72;;;26.84;73.88
41712;BME280;27399;51.516;13.670;2022-08-24T14:41:20;100913.56;;;27.17;71.62
41712;BME280;27399;51.516;13.670;2022-08-24T14:43:29;100920.88;;;27.16;74.26
41712;BME280;27399;51.516;13.670;2022-08-24T14:48:47;100904.31;;;26.92;71.01
41712;BME280;27399;51.516;13.670;2022-08-24T14:54:09;100909.06;;;27.16;70.55
41712;BME280;27399;51.516;13.670;2022-08-24T15:01:49;100904.00;;;27.10;73.50
41712;BME280;27399;51.516;13.670;2022-08-24T15:06:50;100889.56;;;27.08;70.82
41712;BME280;27399;51.516;13.670;2022-08-24T15:09:23;100887.38;;;27.38;69.28
41712;BME280;27399;51.516;13.670;2022-08-24T15:11:50;100888.22;;;27.39;69.45
41712;BME280;27399;51.516;13.670;2022-08-24T15:17:02;100885.19;;;27.57;70.94
41712;BME280;27399;51.516;13.670;2022-08-24T15:19:32;100887.84;;;27.45;70.44
41712;BME280;27399;51.516;13.670;2022-08-24T15:22:05;100880.69;;;27.56;70.04
41712;BME280;27399;51.516;13.670;2022-08-24T15:29:59;100875.09;;;27.31;69.29
41712;BME280;27399;51.516;13.670;2022-08-24T15:32:37;100877.06;;;27.42;69.38
41712;BME280;27399;51.516;13.670;2022-08-24T15:35:04;100878.81;;;27.56;68.72
41712;BME280;27399;51.516;13.670;2022-08-24T15:37:31;100876.38;;;27.64;69.45
41712;BME280;27399;51.516;13.670;2022-08-24T15:39:57;100871.16;;;27.61;67.91
41712;BME280;27399;51.516;13.670;2022-08-24T15:42:24;100873.22;;;27.58;68.56
41712;BME280;27399;51.516;13.670;2022-08-24T15:44:50;100879.28;;;27.87;69.04
41712;BME280;27399;51.516;13.670;2022-08-24T15:49:52;100866.69;;;27.84;65.77
41712;BME280;27399;51.516;13.670;2022-08-24T15:54:58;100882.78;;;27.89;68.22
41712;BME280;27399;51.516;13.670;2022-08-24T15:59:50;100880.31;;;28.10;66.88
41712;BME280;27399;51.516;13.670;2022-08-24T16:02:22;100876.34;;;27.90;66.73
41712;BME280;27399;51.516;13.670;2022-08-24T16:05:01;100868.94;;;28.52;65.57
41712;BME280;27399;51.516;13.670;2022-08-24T16:07:56;100875.66;;;28.72;66.14
41712;BME280;27399;51.516;13.670;2022-08-24T16:10:27;100872.34;;;29.03;65.37
41712;BME280;27399;51.516;13.670;2022-08-24T16:12:52;100877.31;;;28.86;65.53
41712;BME280;27399;51.516;13.670;2022-08-24T16:15:19;100872.22;;;28.93;65.72
41712;BME280;27399;51.516;13.670;2022-08-24T16:17:54;100871.13;;;28.36;65.02
41712;BME280;27399;51.516;13.670;2022-08-24T16:22:49;100874.59;;;28.38;66.44
41712;BME280;27399;51.516;13.670;2022-08-24T16:27:52;100876.41;;;28.02;68.77
41712;BME280;27399;51.516;13.670;2022-08-24T16:30:21;100870.22;;;27.74;67.61
41712;BME280;27399;51.516;13.670;2022-08-24T16:32:53;100865.16;;;27.80;68.61